Time;durP1;ratioP1;P1;durP2;ratioP2;P2;SDS_P1;SDS_P2;PMS_P1;PMS_P2;Temp;Humidity;BMP_temperature;BMP_pressure;BME280_temperature;BME280_humidity;BME280_pressure;Samples;Min_cycle;Max_cycle;Signal;HPM_P1;HPM_P2
2022/01/04 00:02:01;;;;;;;0.73;0.60;;;17.90;42.80;;;;;;5070006;28;20603;-67
2022/01/04 00:04:27;;;;;;;0.70;0.67;;;17.90;42.70;;;;;;5069506;28;20309;-67
2022/01/04 00:06:53;;;;;;;0.70;0.60;;;17.90;42.70;;;;;;5069950;28;20547;-67
2022/01/04 00:09:19;;;;;;;0.80;0.70;;;17.90;42.70;;;;;;5069830;28;20297;-66
2022/01/04 00:11:59;;;;;;;0.77;0.60;;;17.90;42.70;;;;;;5066609;28;20951;-66
2022/01/04 00:14:25;;;;;;;0.70;0.70;;;17.90;42.80;;;;;;5069038;28;20315;-67
2022/01/04 00:16:54;;;;;;;0.70;0.60;;;17.90;42.80;;;;;;5069465;28;20516;-67
2022/01/04 00:19:20;;;;;;;0.70;0.60;;;17.90;42.80;;;;;;5068912;28;20222;-66
2022/01/04 00:21:46;;;;;;;0.77;0.60;;;17.90;42.80;;;;;;5070081;28;20435;-67
2022/01/04 00:24:12;;;;;;;0.70;0.60;;;17.90;42.70;;;;;;5069629;28;20213;-66
2022/01/04 00:26:37;;;;;;;0.73;0.67;;;17.90;42.70;;;;;;5069059;28;20217;-66
2022/01/04 00:29:03;;;;;;;0.80;0.77;;;17.90;43.50;;;;;;5069016;28;20557;-67
2022/01/04 00:31:30;;;;;;;0.70;0.60;;;17.90;42.70;;;;;;5069563;28;20216;-66
2022/01/04 00:33:55;;;;;;;0.60;0.60;;;17.90;42.70;;;;;;5069315;28;20237;-67
2022/01/04 00:36:21;;;;;;;0.80;0.60;;;17.90;42.80;;;;;;5069155;28;20413;-67
2022/01/04 00:38:47;;;;;;;0.60;0.60;;;17.90;42.70;;;;;;5069615;28;20225;-67
2022/01/04 00:41:12;;;;;;;0.63;0.63;;;17.90;42.70;;;;;;5069752;28;20221;-67
2022/01/04 00:43:38;;;;;;;0.70;0.60;;;17.90;42.60;;;;;;5068922;28;20215;-67
2022/01/04 00:46:03;;;;;;;0.73;0.70;;;17.90;42.60;;;;;;5069474;28;20692;-67
2022/01/04 00:50:55;;;;;;;0.67;0.57;;;17.90;42.60;;;;;;5069448;28;20722;-66
2022/01/04 00:53:22;;;;;;;0.80;0.60;;;17.90;42.60;;;;;;5069064;28;20229;-67
2022/01/04 00:55:47;;;;;;;0.63;0.60;;;17.90;42.70;;;;;;5069270;28;20425;-68
2022/01/04 00:58:13;;;;;;;0.70;0.60;;;17.90;42.60;;;;;;5051642;28;20501;-67
2022/01/04 01:00:39;;;;;;;0.70;0.63;;;17.90;42.70;;;;;;5068745;28;20561;-67
2022/01/04 01:03:06;;;;;;;0.70;0.67;;;17.90;42.60;;;;;;5069028;28;20236;-67
2022/01/04 01:05:33;;;;;;;0.80;0.80;;;17.90;42.60;;;;;;5069150;28;20828;-67
2022/01/04 01:07:59;;;;;;;0.90;0.70;;;17.90;42.60;;;;;;5068426;28;20470;-66
2022/01/04 01:13:01;;;;;;;0.70;0.70;;;17.90;42.60;;;;;;5066833;28;20454;-67
2022/01/04 01:15:26;;;;;;;0.70;0.60;;;17.90;42.60;;;;;;5069007;28;20449;-67
2022/01/04 01:17:52;;;;;;;0.70;0.70;;;17.90;42.60;;;;;;5068504;28;20217;-67
2022/01/04 01:20:18;;;;;;;0.77;0.60;;;17.90;42.70;;;;;;5068270;28;20292;-67
2022/01/04 01:22:44;;;;;;;0.70;0.60;;;17.90;42.60;;;;;;5066365;28;20288;-66
2022/01/04 01:25:12;;;;;;;0.70;0.60;;;17.90;42.70;;;;;;5068714;28;20530;-67
2022/01/04 01:27:38;;;;;;;0.77;0.70;;;17.90;42.70;;;;;;5066618;28;20217;-67
2022/01/04 01:30:04;;;;;;;0.70;0.60;;;17.90;42.70;;;;;;5068116;28;20421;-67
2022/01/04 01:32:30;;;;;;;0.83;0.80;;;17.90;42.80;;;;;;5069018;28;20249;-67
2022/01/04 01:34:56;;;;;;;0.60;0.60;;;17.90;42.70;;;;;;5068788;28;20820;-67
2022/01/04 01:37:21;;;;;;;0.70;0.60;;;17.90;42.70;;;;;;5070067;28;20557;-67
2022/01/04 01:39:47;;;;;;;0.70;0.60;;;17.90;42.60;;;;;;5072796;28;20278;-67
2022/01/04 01:42:13;;;;;;;0.67;0.60;;;17.90;42.60;;;;;;5055114;28;20206;-67
2022/01/04 01:44:39;;;;;;;0.70;0.60;;;17.90;42.70;;;;;;5054387;28;20351;-67
2022/01/04 01:47:05;;;;;;;0.70;0.53;;;17.90;42.70;;;;;;5072525;28;20878;-67
2022/01/04 01:49:31;;;;;;;0.80;0.60;;;17.90;42.70;;;;;;5071733;28;20805;-67
2022/01/04 01:51:58;;;;;;;0.67;0.60;;;17.90;42.70;;;;;;5071948;28;20441;-67
2022/01/04 01:54:23;;;;;;;0.63;0.60;;;17.90;42.70;;;;;;5072099;28;20214;-67
2022/01/04 01:56:50;;;;;;;0.70;0.70;;;17.90;43.50;;;;;;5072421;28;20971;-67
2022/01/04 01:59:16;;;;;;;0.83;0.80;;;17.90;42.70;;;;;;5072540;28;20669;-66
2022/01/04 02:01:42;;;;;;;0.63;0.60;;;17.90;42.70;;;;;;5072451;28;20408;-67
2022/01/04 02:04:08;;;;;;;0.80;0.70;;;17.90;42.80;;;;;;5071743;28;20441;-67
2022/01/04 02:06:34;;;;;;;0.83;0.60;;;17.90;42.80;;;;;;5072369;28;20271;-67
2022/01/04 02:09:00;;;;;;;0.87;0.70;;;17.90;42.80;;;;;;5053587;28;20233;-67
2022/01/04 02:11:30;;;;;;;0.80;0.70;;;17.90;42.80;;;;;;5071910;28;20210;-67
2022/01/04 02:14:00;;;;;;;0.60;0.53;;;17.90;42.70;;;;;;5071815;28;20448;-66
2022/01/04 02:16:27;;;;;;;0.70;0.60;;;17.90;42.80;;;;;;5070854;28;20504;-67
2022/01/04 02:19:03;;;;;;;0.70;0.60;;;17.90;42.80;;;;;;5071920;28;20410;-67
2022/01/04 02:21:29;;;;;;;0.80;0.60;;;17.90;42.80;;;;;;5070938;28;20432;-67
2022/01/04 02:23:55;;;;;;;0.67;0.60;;;17.90;42.60;;;;;;5071741;28;20463;-66
2022/01/04 02:26:21;;;;;;;0.70;0.67;;;17.90;42.80;;;;;;5071918;28;20417;-67
2022/01/04 02:28:48;;;;;;;0.90;0.80;;;17.90;42.70;;;;;;5071771;28;20686;-67
2022/01/04 02:31:14;;;;;;;0.70;0.60;;;17.90;42.80;;;;;;5072367;28;20413;-67
2022/01/04 02:33:39;;;;;;;0.70;0.60;;;17.90;42.70;;;;;;5071732;28;20422;-67
2022/01/04 02:36:05;;;;;;;0.77;0.60;;;17.90;42.70;;;;;;5071649;28;20304;-67
2022/01/04 02:38:31;;;;;;;0.70;0.60;;;17.90;42.60;;;;;;5068167;28;20224;-67
2022/01/04 02:40:56;;;;;;;0.80;0.77;;;17.90;42.60;;;;;;5071163;28;20300;-67
2022/01/04 02:43:22;;;;;;;0.70;0.60;;;17.90;42.60;;;;;;5071288;28;20566;-67
2022/01/04 02:45:47;;;;;;;0.70;0.60;;;17.90;42.80;;;;;;5071319;28;20669;-67
2022/01/04 02:48:13;;;;;;;1.00;0.80;;;17.90;42.70;;;;;;5071406;28;20218;-66
2022/01/04 02:50:39;;;;;;;0.70;0.60;;;17.90;42.60;;;;;;5071388;28;20222;-67
2022/01/04 02:53:04;;;;;;;0.70;0.70;;;17.90;42.70;;;;;;5071107;28;20253;-67
2022/01/04 02:55:30;;;;;;;0.80;0.73;;;17.90;42.60;;;;;;5071375;28;20218;-67
2022/01/04 02:57:55;;;;;;;0.60;0.50;;;17.90;42.70;;;;;;5071155;28;20697;-67
2022/01/04 03:00:23;;;;;;;0.77;0.63;;;17.90;42.60;;;;;;5071207;28;20210;-67
2022/01/04 03:02:48;;;;;;;0.70;0.60;;;17.90;42.60;;;;;;5071184;28;20265;-67
2022/01/04 03:05:14;;;;;;;0.60;0.60;;;17.90;42.60;;;;;;5071262;28;20802;-67
2022/01/04 03:07:40;;;;;;;0.70;0.60;;;17.90;42.70;;;;;;5071175;28;20300;-67
2022/01/04 03:10:06;;;;;;;0.70;0.57;;;17.90;42.70;;;;;;5071310;28;20256;-67
2022/01/04 03:12:32;;;;;;;0.83;0.60;;;17.90;42.60;;;;;;5070784;28;20308;-67
2022/01/04 03:14:57;;;;;;;0.90;0.70;;;17.90;42.70;;;;;;5070699;28;20509;-67
2022/01/04 03:17:23;;;;;;;0.70;0.60;;;17.90;42.70;;;;;;5070588;28;20266;-67
2022/01/04 03:19:49;;;;;;;0.70;0.70;;;17.90;42.60;;;;;;5053005;28;20224;-67
2022/01/04 03:22:14;;;;;;;0.70;0.70;;;17.90;42.70;;;;;;5071259;28;20214;-67
2022/01/04 03:24:40;;;;;;;0.70;0.60;;;17.90;42.60;;;;;;5052781;28;20846;-67
2022/01/04 03:27:06;;;;;;;0.70;0.70;;;17.90;42.50;;;;;;5070294;28;20233;-68
2022/01/04 03:29:31;;;;;;;0.70;0.70;;;17.90;42.50;;;;;;5070581;28;20228;-67
2022/01/04 03:31:58;;;;;;;0.63;0.60;;;17.90;42.60;;;;;;5070228;28;20218;-66
2022/01/04 03:34:24;;;;;;;0.80;0.67;;;17.90;42.60;;;;;;5070509;28;20206;-67
2022/01/04 03:36:50;;;;;;;0.67;0.60;;;17.90;42.50;;;;;;5070679;28;20500;-66
2022/01/04 03:39:15;;;;;;;0.70;0.70;;;17.90;42.50;;;;;;5070906;28;20442;-67
2022/01/04 03:41:43;;;;;;;0.80;0.70;;;17.90;42.60;;;;;;5070496;28;20537;-67
2022/01/04 03:44:15;;;;;;;0.70;0.60;;;17.90;43.40;;;;;;5068333;28;20301;-66
2022/01/04 03:46:40;;;;;;;0.70;0.60;;;17.90;42.60;;;;;;5067200;28;20410;-67
2022/01/04 03:49:06;;;;;;;0.70;0.60;;;17.90;42.50;;;;;;5069987;28;20458;-67
2022/01/04 03:51:32;;;;;;;0.80;0.70;;;17.90;42.50;;;;;;5070202;28;20307;-67
2022/01/04 03:53:57;;;;;;;0.70;0.60;;;17.90;42.60;;;;;;5069887;28;20709;-66
2022/01/04 03:56:23;;;;;;;0.70;0.70;;;17.90;42.60;;;;;;5070020;28;20216;-67
2022/01/04 03:58:48;;;;;;;0.70;0.70;;;17.90;42.50;;;;;;5070046;28;20221;-67
2022/01/04 04:01:14;;;;;;;0.80;0.60;;;17.90;42.50;;;;;;5069760;28;20359;-67
2022/01/04 04:03:40;;;;;;;0.87;0.80;;;17.90;42.60;;;;;;5069610;28;20248;-67
2022/01/04 04:06:05;;;;;;;0.90;0.90;;;17.90;42.60;;;;;;5051692;28;20221;-67
2022/01/04 04:08:31;;;;;;;0.80;0.70;;;17.90;42.60;;;;;;5069905;28;20740;-67
2022/01/04 04:10:57;;;;;;;0.80;0.70;;;17.90;42.50;;;;;;5069360;28;20275;-66
2022/01/04 04:13:22;;;;;;;0.80;0.70;;;17.90;42.50;;;;;;5069760;28;20234;-67
2022/01/04 04:15:48;;;;;;;0.77;0.63;;;17.90;42.50;;;;;;5069854;28;20222;-67
2022/01/04 04:18:14;;;;;;;0.80;0.70;;;17.90;42.50;;;;;;5070374;28;20316;-67
2022/01/04 04:20:40;;;;;;;0.80;0.80;;;17.90;42.50;;;;;;5067174;28;20684;-66
2022/01/04 04:23:07;;;;;;;0.70;0.67;;;17.90;42.50;;;;;;5069384;28;20233;-66
2022/01/04 04:25:33;;;;;;;0.80;0.70;;;17.90;42.50;;;;;;5069847;28;20484;-67
2022/01/04 04:27:59;;;;;;;0.70;0.70;;;17.90;42.50;;;;;;5069603;28;20970;-67
2022/01/04 04:30:25;;;;;;;0.93;0.70;;;17.90;42.50;;;;;;5069363;28;20213;-67
2022/01/04 04:32:51;;;;;;;0.70;0.60;;;17.90;42.50;;;;;;5068476;28;20426;-67
2022/01/04 04:35:17;;;;;;;0.80;0.70;;;17.90;42.60;;;;;;5069577;28;20462;-67
2022/01/04 04:37:43;;;;;;;0.70;0.70;;;17.90;42.50;;;;;;5070047;28;20248;-67
2022/01/04 04:40:09;;;;;;;0.80;0.70;;;17.90;42.50;;;;;;5069171;28;20815;-67
2022/01/04 04:42:35;;;;;;;0.80;0.70;;;17.90;42.60;;;;;;5069387;28;20218;-67
2022/01/04 04:45:02;;;;;;;0.60;0.60;;;17.90;42.50;;;;;;5069205;28;20436;-67
2022/01/04 04:47:28;;;;;;;0.80;0.70;;;17.90;42.60;;;;;;5051108;28;20468;-67
2022/01/04 04:49:53;;;;;;;0.70;0.60;;;17.90;42.60;;;;;;5069379;28;21013;-66
2022/01/04 04:52:19;;;;;;;0.80;0.70;;;17.90;42.50;;;;;;5069093;28;20221;-67
2022/01/04 04:54:45;;;;;;;0.70;0.60;;;17.90;42.50;;;;;;5069721;28;20300;-67
2022/01/04 04:57:11;;;;;;;0.80;0.70;;;17.90;42.60;;;;;;5069203;28;20512;-67
2022/01/04 04:59:37;;;;;;;1.00;0.80;;;17.90;42.50;;;;;;5069373;28;20658;-67
2022/01/04 05:02:03;;;;;;;0.80;0.80;;;17.90;42.60;;;;;;5069089;28;20221;-67
2022/01/04 05:04:29;;;;;;;0.70;0.70;;;17.90;42.50;;;;;;5068960;28;20490;-67
2022/01/04 05:06:54;;;;;;;0.70;0.60;;;17.90;42.70;;;;;;5069234;28;20943;-66
2022/01/04 05:09:20;;;;;;;0.80;0.70;;;17.90;42.70;;;;;;5069045;28;20226;-67
2022/01/04 05:11:46;;;;;;;0.70;0.67;;;17.90;42.60;;;;;;5068564;28;20209;-66
2022/01/04 05:14:12;;;;;;;0.87;0.80;;;17.90;42.70;;;;;;5073195;28;20432;-67
2022/01/04 05:16:37;;;;;;;0.90;0.77;;;17.90;42.60;;;;;;5073187;28;20209;-67
2022/01/04 05:19:03;;;;;;;0.80;0.70;;;17.90;42.70;;;;;;5055183;28;20245;-67
2022/01/04 05:21:29;;;;;;;0.80;0.77;;;17.90;42.70;;;;;;5073128;28;20214;-66
2022/01/04 05:23:54;;;;;;;0.80;0.70;;;17.90;42.70;;;;;;5072824;28;20230;-67
2022/01/04 05:26:21;;;;;;;1.10;0.77;;;17.90;42.70;;;;;;5072942;28;20221;-67
2022/01/04 05:28:47;;;;;;;0.80;0.70;;;17.90;42.70;;;;;;5072903;28;20691;-67
2022/01/04 05:31:13;;;;;;;0.60;0.60;;;17.90;42.60;;;;;;5073157;28;20967;-67
2022/01/04 05:33:39;;;;;;;0.70;0.60;;;17.90;42.70;;;;;;5072704;28;20300;-67
2022/01/04 05:36:05;;;;;;;0.63;0.60;;;17.90;42.60;;;;;;5072643;28;20420;-67
2022/01/04 05:38:30;;;;;;;0.80;0.70;;;17.90;42.60;;;;;;5072611;28;20421;-66
2022/01/04 05:40:56;;;;;;;0.90;0.80;;;17.90;42.50;;;;;;5072475;28;20224;-67
2022/01/04 05:43:22;;;;;;;0.70;0.63;;;17.90;42.50;;;;;;5072808;28;20298;-67
2022/01/04 05:45:47;;;;;;;0.90;0.80;;;17.90;42.70;;;;;;5072586;28;20467;-67
2022/01/04 05:48:13;;;;;;;0.83;0.70;;;17.90;42.50;;;;;;5073015;28;20263;-67
2022/01/04 05:50:39;;;;;;;0.80;0.70;;;17.90;42.60;;;;;;5072371;28;20217;-67
2022/01/04 05:53:05;;;;;;;0.90;0.80;;;17.90;42.60;;;;;;5072464;28;20288;-67
2022/01/04 05:55:31;;;;;;;0.73;0.70;;;17.90;42.60;;;;;;5072289;28;20300;-67
2022/01/04 05:57:56;;;;;;;0.90;0.80;;;17.90;42.60;;;;;;5072129;28;20508;-67
2022/01/04 06:00:22;;;;;;;1.00;0.90;;;17.90;42.50;;;;;;5072146;28;20222;-67
2022/01/04 06:02:48;;;;;;;0.80;0.70;;;17.90;42.60;;;;;;5072347;28;20217;-67
2022/01/04 06:05:13;;;;;;;0.70;0.63;;;17.90;42.50;;;;;;5072214;28;20233;-67
2022/01/04 06:07:39;;;;;;;0.70;0.70;;;17.90;42.50;;;;;;5072341;28;20650;-67
2022/01/04 06:10:07;;;;;;;0.70;0.67;;;17.90;42.50;;;;;;5072166;28;20578;-67
2022/01/04 06:15:09;;;;;;;0.90;0.80;;;17.90;42.50;;;;;;5072039;28;20434;-67
2022/01/04 06:17:41;;;;;;;0.90;0.80;;;17.90;42.50;;;;;;5068535;28;20425;-67
2022/01/04 06:20:08;;;;;;;0.70;0.70;;;17.90;42.50;;;;;;5072014;28;20417;-67
2022/01/04 06:22:34;;;;;;;0.80;0.73;;;17.90;42.50;;;;;;5071076;28;20936;-67
2022/01/04 06:25:01;;;;;;;0.80;0.67;;;17.90;42.50;;;;;;5071845;28;20513;-66
2022/01/04 06:27:27;;;;;;;1.10;1.00;;;17.90;42.50;;;;;;5071778;28;20517;-67
2022/01/04 06:29:52;;;;;;;0.83;0.70;;;17.90;42.50;;;;;;5071709;28;20476;-67
2022/01/04 06:32:18;;;;;;;0.80;0.63;;;17.90;42.50;;;;;;5071721;28;20728;-67
2022/01/04 06:34:44;;;;;;;0.90;0.70;;;17.90;42.50;;;;;;5072055;28;20583;-66
2022/01/04 06:37:12;;;;;;;0.80;0.80;;;17.90;42.50;;;;;;5071306;28;20561;-67
2022/01/04 06:39:38;;;;;;;0.70;0.60;;;17.90;42.50;;;;;;5071584;28;20421;-67
2022/01/04 06:42:04;;;;;;;0.80;0.80;;;17.90;42.40;;;;;;5071557;28;20414;-67
2022/01/04 06:44:30;;;;;;;1.90;0.90;;;17.90;42.40;;;;;;5053426;28;20271;-67
2022/01/04 06:46:57;;;;;;;0.83;0.80;;;17.90;42.50;;;;;;5071219;28;20458;-67
2022/01/04 06:49:23;;;;;;;0.80;0.70;;;17.90;42.50;;;;;;5071404;28;20441;-67
2022/01/04 06:51:49;;;;;;;0.90;0.80;;;17.90;42.50;;;;;;5071332;28;20414;-67
2022/01/04 06:54:16;;;;;;;1.00;0.90;;;17.90;42.50;;;;;;5071800;28;20479;-67
2022/01/04 06:56:43;;;;;;;0.83;0.70;;;17.90;42.40;;;;;;5071542;28;20213;-66
2022/01/04 06:59:09;;;;;;;0.90;0.77;;;17.90;42.50;;;;;;5070920;28;20417;-67
2022/01/04 07:01:36;;;;;;;0.80;0.80;;;17.90;42.50;;;;;;5070958;28;20549;-67
2022/01/04 07:04:02;;;;;;;0.70;0.70;;;17.90;42.40;;;;;;5070762;28;20430;-67
2022/01/04 07:06:28;;;;;;;0.77;0.70;;;17.90;42.40;;;;;;5071318;28;20421;-67
2022/01/04 07:08:53;;;;;;;1.47;0.70;;;17.90;42.40;;;;;;5071047;28;20421;-67
2022/01/04 07:11:19;;;;;;;0.80;0.80;;;17.90;42.50;;;;;;5070989;28;20218;-67
2022/01/04 07:13:45;;;;;;;0.77;0.63;;;17.90;42.50;;;;;;5071156;28;20253;-67
2022/01/04 07:16:11;;;;;;;1.20;1.10;;;17.90;42.40;;;;;;5070794;28;20221;-67
2022/01/04 07:18:37;;;;;;;1.00;0.80;;;17.90;42.50;;;;;;5070724;28;20237;-67
2022/01/04 07:21:03;;;;;;;1.57;1.17;;;17.80;42.40;;;;;;5070505;28;20421;-67
2022/01/04 07:23:29;;;;;;;0.80;0.77;;;17.90;42.50;;;;;;5070513;28;20217;-67
2022/01/04 07:25:55;;;;;;;0.70;0.67;;;17.90;42.40;;;;;;5070346;28;20423;-67
2022/01/04 07:28:21;;;;;;;1.10;1.00;;;17.90;42.40;;;;;;5070339;28;20259;-67
2022/01/04 07:30:47;;;;;;;0.80;0.80;;;17.90;42.40;;;;;;5070211;28;20879;-67
2022/01/04 07:33:13;;;;;;;0.80;0.77;;;17.80;42.30;;;;;;5070841;28;20470;-67
2022/01/04 07:35:38;;;;;;;0.83;0.83;;;17.90;42.40;;;;;;5069492;28;20231;-67
2022/01/04 07:38:05;;;;;;;0.90;0.70;;;17.80;43.10;;;;;;5070284;28;20300;-67
2022/01/04 07:40:30;;;;;;;0.90;0.80;;;17.80;42.40;;;;;;5070393;28;20217;-67
2022/01/04 07:42:59;;;;;;;1.00;0.90;;;17.90;42.30;;;;;;5070452;28;20502;-67
2022/01/04 07:45:30;;;;;;;1.00;0.90;;;17.90;42.40;;;;;;5070033;28;20224;-67
2022/01/04 07:47:56;;;;;;;0.87;0.60;;;17.80;42.30;;;;;;5068799;28;20432;-67
2022/01/04 07:50:22;;;;;;;0.83;0.80;;;17.90;42.40;;;;;;5070166;28;20909;-67
2022/01/04 07:52:48;;;;;;;0.83;0.83;;;17.90;42.40;;;;;;5070090;28;20432;-67
2022/01/04 07:55:13;;;;;;;0.70;0.70;;;17.90;42.40;;;;;;5070637;28;20360;-67
2022/01/04 07:57:41;;;;;;;0.87;0.80;;;17.90;42.40;;;;;;5070216;28;20552;-67
2022/01/04 08:00:08;;;;;;;0.90;0.80;;;17.80;42.30;;;;;;5070061;28;20225;-67
2022/01/04 08:02:34;;;;;;;0.90;0.90;;;17.90;42.40;;;;;;5070046;28;20426;-67
2022/01/04 08:05:00;;;;;;;0.70;0.70;;;17.80;42.30;;;;;;5069348;28;20441;-67
2022/01/04 08:07:25;;;;;;;1.00;0.90;;;17.80;42.30;;;;;;5069785;28;20213;-67
2022/01/04 08:09:52;;;;;;;1.20;0.80;;;17.90;42.40;;;;;;5069842;28;20279;-67
2022/01/04 08:12:18;;;;;;;0.80;0.70;;;17.90;42.40;;;;;;5069902;28;20217;-67
2022/01/04 08:14:45;;;;;;;0.80;0.70;;;17.90;42.30;;;;;;5070442;28;20581;-67
2022/01/04 08:17:12;;;;;;;1.00;0.90;;;17.90;42.40;;;;;;5069494;28;20428;-67
2022/01/04 08:19:37;;;;;;;0.80;0.80;;;17.90;42.40;;;;;;5068986;28;20418;-67
2022/01/04 08:22:03;;;;;;;0.83;0.73;;;17.90;42.40;;;;;;5069626;28;20425;-67
2022/01/04 08:24:29;;;;;;;0.80;0.80;;;17.90;42.40;;;;;;5069694;28;20565;-67
2022/01/04 08:26:55;;;;;;;1.00;0.80;;;17.90;42.40;;;;;;5069489;28;20447;-67
2022/01/04 08:29:21;;;;;;;0.80;0.70;;;17.80;42.30;;;;;;5069398;28;20428;-67
2022/01/04 08:31:47;;;;;;;0.80;0.80;;;17.90;42.40;;;;;;5069590;28;20223;-67
2022/01/04 08:34:14;;;;;;;0.90;0.80;;;17.90;43.10;;;;;;5069768;28;20347;-67
2022/01/04 08:36:40;;;;;;;1.33;1.23;;;17.90;42.30;;;;;;5066590;28;20224;-67
2022/01/04 08:39:06;;;;;;;0.70;0.70;;;17.80;42.20;;;;;;5069200;28;20418;-67
2022/01/04 08:41:32;;;;;;;1.00;0.90;;;17.80;42.20;;;;;;5069693;28;20304;-67
2022/01/04 08:43:57;;;;;;;0.70;0.70;;;17.80;42.30;;;;;;5051392;28;20860;-67
2022/01/04 08:46:23;;;;;;;1.10;1.00;;;17.90;42.30;;;;;;5069052;28;20311;-67
2022/01/04 08:48:49;;;;;;;0.90;0.80;;;17.80;42.20;;;;;;5069109;28;20218;-67
2022/01/04 08:51:15;;;;;;;0.80;0.70;;;17.80;42.20;;;;;;5069697;28;20304;-67
2022/01/04 08:53:40;;;;;;;0.83;0.83;;;17.80;42.20;;;;;;5069179;28;20608;-67
2022/01/04 08:56:06;;;;;;;0.77;0.77;;;17.80;42.20;;;;;;5069132;28;20234;-67
2022/01/04 08:58:32;;;;;;;1.20;0.90;;;17.80;42.20;;;;;;5066391;28;20633;-67
2022/01/04 09:00:58;;;;;;;1.00;0.90;;;17.80;42.20;;;;;;5069260;28;20224;-67
2022/01/04 09:03:26;;;;;;;0.93;0.83;;;17.90;42.30;;;;;;5068932;28;20446;-67
2022/01/04 09:05:52;;;;;;;1.00;0.90;;;17.80;42.20;;;;;;5067998;28;20214;-67
2022/01/04 09:08:18;;;;;;;0.80;0.80;;;17.80;42.20;;;;;;5069203;28;20492;-67
2022/01/04 09:10:44;;;;;;;0.87;0.80;;;17.80;42.30;;;;;;5068485;28;20287;-67
2022/01/04 09:13:17;;;;;;;0.80;0.80;;;17.80;42.20;;;;;;5066429;28;20226;-67
2022/01/04 09:20:54;;;;;;;0.70;0.70;;;17.80;42.20;;;;;;5068456;28;20223;-67
2022/01/04 09:23:22;;;;;;;0.67;0.60;;;17.80;43.00;;;;;;5069185;28;20537;-67
2022/01/04 09:25:49;;;;;;;0.80;0.73;;;17.80;42.30;;;;;;5069000;28;20310;-67
2022/01/04 09:28:16;;;;;;;0.80;0.70;;;17.80;42.20;;;;;;5069324;28;20455;-67
2022/01/04 09:30:44;;;;;;;0.80;0.80;;;17.80;42.20;;;;;;5068901;28;20450;-67
2022/01/04 09:33:10;;;;;;;0.80;0.70;;;17.80;42.20;;;;;;5068660;28;20862;-67
2022/01/04 09:35:37;;;;;;;0.80;0.80;;;17.80;42.20;;;;;;5068912;28;20440;-66
2022/01/04 09:38:06;;;;;;;1.07;0.70;;;17.80;42.10;;;;;;5068911;28;20783;-67
2022/01/04 09:40:33;;;;;;;1.00;0.90;;;17.90;42.20;;;;;;5068985;28;20525;-67
2022/01/04 09:43:02;;;;;;;0.80;0.70;;;17.80;42.20;;;;;;5068601;28;20454;-67
2022/01/04 09:45:27;;;;;;;0.90;0.80;;;17.80;42.20;;;;;;5067104;28;20542;-67
2022/01/04 09:47:53;;;;;;;0.80;0.77;;;17.80;42.20;;;;;;5068511;28;20544;-67
2022/01/04 09:50:19;;;;;;;0.80;0.70;;;17.80;42.20;;;;;;5068589;28;20210;-67
2022/01/04 09:52:47;;;;;;;0.77;0.70;;;17.80;42.20;;;;;;5068626;28;20229;-67
2022/01/04 09:55:14;;;;;;;0.80;0.70;;;17.80;42.20;;;;;;5068585;28;20213;-67
2022/01/04 09:57:41;;;;;;;0.70;0.70;;;17.80;42.20;;;;;;5068725;28;20894;-67
2022/01/04 10:00:08;;;;;;;1.00;0.90;;;17.80;42.20;;;;;;5071714;28;20518;-67
2022/01/04 10:02:35;;;;;;;1.00;0.90;;;17.80;42.20;;;;;;5043812;28;20456;-67
2022/01/04 10:05:29;;;;;;;0.70;0.63;;;17.80;42.10;;;;;;5049667;28;20513;-67
2022/01/04 10:08:05;;;;;;;1.03;0.80;;;17.80;42.10;;;;;;5049825;28;20431;-67
2022/01/04 10:10:32;;;;;;;0.80;0.77;;;17.80;42.10;;;;;;5050207;28;20458;-67
2022/01/04 10:13:00;;;;;;;0.70;0.60;;;17.80;42.10;;;;;;5051846;28;20426;-67
2022/01/04 10:15:33;;;;;;;0.70;0.60;;;17.80;42.20;;;;;;5051082;28;20430;-67
2022/01/04 10:18:21;;;;;;;1.00;0.70;;;17.80;42.20;;;;;;5051178;28;20906;-67
2022/01/04 10:20:58;;;;;;;0.90;0.63;;;17.80;42.20;;;;;;5051150;28;20414;-67
2022/01/04 10:23:25;;;;;;;0.70;0.60;;;17.80;42.10;;;;;;5051997;28;20429;-67
2022/01/04 10:26:00;;;;;;;0.80;0.70;;;17.80;42.10;;;;;;5051956;28;20487;-67
2022/01/04 10:28:33;;;;;;;0.70;0.60;;;17.80;42.10;;;;;;5051924;28;20508;-67
2022/01/04 10:31:01;;;;;;;0.90;0.70;;;17.80;42.10;;;;;;5050364;28;20430;-66
2022/01/04 10:33:28;;;;;;;0.70;0.70;;;17.80;42.20;;;;;;5051031;28;20438;-67
2022/01/04 10:35:55;;;;;;;1.10;0.70;;;17.80;42.10;;;;;;5051283;28;20491;-67
2022/01/04 10:38:35;;;;;;;0.80;0.77;;;17.80;42.10;;;;;;5050225;28;20414;-67
2022/01/04 10:41:05;;;;;;;0.70;0.70;;;17.80;42.20;;;;;;5050984;28;20432;-67
2022/01/04 10:43:46;;;;;;;0.80;0.80;;;17.80;42.10;;;;;;5050175;28;20992;-66
2022/01/04 10:46:18;;;;;;;0.80;0.73;;;17.80;42.10;;;;;;5050719;28;20827;-67
2022/01/04 10:48:47;;;;;;;0.97;0.87;;;17.80;42.00;;;;;;5046811;28;20501;-67
2022/01/04 10:51:21;;;;;;;0.70;0.60;;;17.80;42.10;;;;;;5051744;28;20412;-67
2022/01/04 10:53:51;;;;;;;0.70;0.70;;;17.80;42.10;;;;;;5050295;28;20430;-67
2022/01/04 10:56:38;;;;;;;0.90;0.80;;;17.80;42.10;;;;;;5050207;28;20521;-67
2022/01/04 10:59:10;;;;;;;0.80;0.80;;;17.80;42.10;;;;;;5051098;28;20427;-67
2022/01/04 11:01:39;;;;;;;0.87;0.70;;;17.80;42.10;;;;;;5048464;28;20510;-67
2022/01/04 11:04:10;;;;;;;1.00;0.90;;;17.80;42.00;;;;;;5049844;28;20461;-67
2022/01/04 11:06:38;;;;;;;0.80;0.73;;;17.80;42.00;;;;;;5051070;28;20451;-67
2022/01/04 11:09:08;;;;;;;0.70;0.70;;;17.80;42.00;;;;;;5048897;28;20949;-67
2022/01/04 11:11:34;;;;;;;0.70;0.60;;;17.80;42.00;;;;;;5051241;28;20483;-67
2022/01/04 11:14:01;;;;;;;0.70;0.70;;;17.80;42.10;;;;;;5051119;28;20495;-67
2022/01/04 11:16:28;;;;;;;1.00;0.70;;;17.80;42.00;;;;;;5049782;28;20422;-67
2022/01/04 11:18:55;;;;;;;0.80;0.70;;;17.80;42.70;;;;;;5049579;28;20415;-67
2022/01/04 11:21:24;;;;;;;1.00;0.70;;;17.80;42.10;;;;;;5050308;28;20418;-67
2022/01/04 11:23:51;;;;;;;0.80;0.67;;;17.80;42.00;;;;;;5050824;28;20493;-67
2022/01/04 11:26:18;;;;;;;1.63;0.80;;;17.80;42.00;;;;;;5050903;28;20418;-67
2022/01/04 11:28:46;;;;;;;0.70;0.70;;;17.80;42.00;;;;;;5051312;28;20475;-66
2022/01/04 11:31:49;;;;;;;0.70;0.70;;;17.80;42.00;;;;;;5051171;28;20453;-67
2022/01/04 11:34:39;;;;;;;0.70;0.70;;;17.80;42.00;;;;;;5049147;28;20437;-67
2022/01/04 11:37:06;;;;;;;0.70;0.70;;;17.80;42.00;;;;;;5049411;28;20900;-67
2022/01/04 11:39:31;;;;;;;1.00;0.80;;;17.80;42.00;;;;;;5050518;28;20440;-67
2022/01/04 11:42:02;;;;;;;0.70;0.60;;;17.80;42.00;;;;;;5050682;28;20486;-67
2022/01/04 11:44:31;;;;;;;0.90;0.70;;;17.80;42.10;;;;;;5050196;28;20218;-67
2022/01/04 11:47:15;;;;;;;0.70;0.70;;;17.80;42.00;;;;;;5047612;28;20451;-67
2022/01/04 11:50:15;;;;;;;0.80;0.70;;;17.80;42.10;;;;;;5050520;28;20487;-67
2022/01/04 11:52:52;;;;;;;0.83;0.63;;;17.80;42.00;;;;;;5049933;28;20426;-67
2022/01/04 11:55:23;;;;;;;0.90;0.70;;;17.80;42.00;;;;;;5050297;28;20443;-67
2022/01/04 11:57:50;;;;;;;0.80;0.80;;;17.80;42.00;;;;;;5046903;28;20415;-67
2022/01/04 12:00:36;;;;;;;0.80;0.70;;;17.80;42.00;;;;;;5050664;28;21105;-67
2022/01/04 12:03:03;;;;;;;0.83;0.83;;;17.80;42.00;;;;;;5049543;28;20819;-67
2022/01/04 12:05:29;;;;;;;0.70;0.70;;;17.80;42.00;;;;;;5048714;28;20823;-67
2022/01/04 12:07:57;;;;;;;0.77;0.77;;;17.80;42.00;;;;;;5050064;28;20574;-67
2022/01/04 12:10:23;;;;;;;0.67;0.63;;;17.80;42.00;;;;;;5050021;28;20225;-67
2022/01/04 12:13:09;;;;;;;0.60;0.60;;;17.80;42.00;;;;;;5049753;28;20422;-67
2022/01/04 12:15:35;;;;;;;0.80;0.80;;;17.80;42.00;;;;;;5049711;28;20430;-67
2022/01/04 12:18:03;;;;;;;0.80;0.70;;;17.80;42.00;;;;;;5049930;28;20418;-67
2022/01/04 12:21:00;;;;;;;0.80;0.70;;;17.80;42.00;;;;;;5047806;28;20218;-67
2022/01/04 12:26:03;;;;;;;0.70;0.60;;;17.80;42.00;;;;;;5049813;28;20470;-67
2022/01/04 12:28:40;;;;;;;0.80;0.60;;;17.80;42.00;;;;;;5049748;28;20470;-67
2022/01/04 12:31:27;;;;;;;0.80;0.60;;;17.80;42.00;;;;;;5049094;28;20422;-67
2022/01/04 12:34:17;;;;;;;0.80;0.70;;;17.80;41.90;;;;;;5048284;28;20475;-67
2022/01/04 12:36:46;;;;;;;0.70;0.63;;;17.80;42.00;;;;;;5047080;28;20458;-67
2022/01/04 12:39:17;;;;;;;0.80;0.80;;;17.80;41.90;;;;;;5049548;28;20565;-67
2022/01/04 12:41:44;;;;;;;1.17;0.80;;;17.80;41.90;;;;;;5049284;28;20494;-67
2022/01/04 12:44:12;;;;;;;1.00;0.80;;;17.80;42.00;;;;;;5047098;28;20463;-67
2022/01/04 12:46:40;;;;;;;0.73;0.70;;;17.80;42.00;;;;;;5049594;28;20493;-67
2022/01/04 12:49:09;;;;;;;0.80;0.80;;;17.80;41.90;;;;;;5049528;28;20415;-67
2022/01/04 12:51:36;;;;;;;0.80;0.70;;;17.80;41.90;;;;;;5049536;28;20421;-67
2022/01/04 12:54:09;;;;;;;0.87;0.73;;;17.80;41.90;;;;;;5048701;28;20480;-67
2022/01/04 12:57:05;;;;;;;0.90;0.80;;;17.80;42.10;;;;;;5047216;28;20530;-67
2022/01/04 12:59:35;;;;;;;0.80;0.70;;;17.80;42.00;;;;;;5034926;28;20455;-67
2022/01/04 13:02:11;;;;;;;0.67;0.60;;;17.80;41.90;;;;;;5049052;28;20990;-67
2022/01/04 13:04:39;;;;;;;0.90;0.90;;;17.80;41.90;;;;;;5046246;28;20481;-67
2022/01/04 13:07:12;;;;;;;0.77;0.73;;;17.80;41.90;;;;;;5049171;28;20430;-67